Terminal Aerodrome Forecast
Issued by NWS

Home | Current Version | Previous Version | Text Only | Print | Product List | Glossary On
Versions: 1 2 3 4 5 6 7 8 9 10 11 12 13 14 15
000
FTUS43 KLSX 182300
TAFCPS
TAF
KCPS 182320Z 1900/1924 VRB03KT P6SM SCT045
      TEMPO 1910/1913 3SM BR
     FM191500 17005KT P6SM SCT250=

USA.gov is the U.S. government's official web portal to all federal, state and local government web resources and services.